ACA802 CYYT-EGCC
Flight info
| Callsign | ACA802 |
|---|---|
| Flight time | 3h 53m |
| Altitude | 39000 |
| Route | YYT DCT NICSO DCT 48N050W/M083F390 50N040W 52N030W 54N020W DCT DOGAL DCT BEXET/N0478F390 DCT BOFUM Q37 MALUD |
| Aircraft | B77L/H-SDE1E2E3FGHIJ2J3J4J5M1RWXY/LB1D1 |
Departure
| Time | 2026-04-25 17:16 |
|---|---|
| Airport | St. John's International Airport (CYYT) |
Arrival
| Time | 2026-04-25 21:09 |
|---|---|
| Airport | Manchester Airport (EGCC) |
| Time | Latitude | Longitude | Altitude | Speed | Heading |
|---|---|---|---|---|---|
| 2026-04-25 16:59 | 47.61389 | -52.74246 | 474 ft | 0 kts | 207° |
| 2026-04-25 17:06 | 47.61390 | -52.74246 | 481 ft | 1 kts | 207° |
| 2026-04-25 17:07 | 47.61412 | -52.74234 | 472 ft | 4 kts | 184° |
| 2026-04-25 17:07 | 47.61436 | -52.74240 | 473 ft | 4 kts | 145° |
| 2026-04-25 17:07 | 47.61451 | -52.74262 | 475 ft | 1 kts | 113° |
| 2026-04-25 17:07 | 47.61451 | -52.74263 | 475 ft | 0 kts | 113° |
| 2026-04-25 17:09 | 47.61451 | -52.74262 | 481 ft | 0 kts | 113° |
| 2026-04-25 17:09 | 47.61449 | -52.74259 | 481 ft | 1 kts | 115° |
| 2026-04-25 17:09 | 47.61444 | -52.74242 | 474 ft | 2 kts | 115° |
| 2026-04-25 17:10 | 47.61425 | -52.74179 | 472 ft | 17 kts | 114° |
| 2026-04-25 17:10 | 47.61382 | -52.74041 | 471 ft | 18 kts | 118° |
| 2026-04-25 17:10 | 47.61322 | -52.73968 | 473 ft | 14 kts | 159° |
| 2026-04-25 17:10 | 47.61288 | -52.73850 | 472 ft | 11 kts | 40° |
| 2026-04-25 17:11 | 47.61379 | -52.73836 | 474 ft | 17 kts | 353° |
| 2026-04-25 17:11 | 47.61515 | -52.73853 | 477 ft | 26 kts | 351° |
| 2026-04-25 17:11 | 47.61723 | -52.73871 | 476 ft | 29 kts | 356° |
| 2026-04-25 17:11 | 47.61919 | -52.73891 | 478 ft | 24 kts | 355° |
| 2026-04-25 17:12 | 47.62083 | -52.73910 | 473 ft | 24 kts | 355° |
| 2026-04-25 17:12 | 47.62246 | -52.73927 | 476 ft | 24 kts | 358° |
| 2026-04-25 17:12 | 47.62413 | -52.73933 | 474 ft | 26 kts | 357° |
| 2026-04-25 17:12 | 47.62508 | -52.74121 | 476 ft | 26 kts | 268° |
| 2026-04-25 17:13 | 47.62493 | -52.74466 | 481 ft | 40 kts | 265° |
| 2026-04-25 17:13 | 47.62479 | -52.74721 | 490 ft | 37 kts | 265° |
| 2026-04-25 17:13 | 47.62458 | -52.75214 | 487 ft | 35 kts | 265° |
| 2026-04-25 17:13 | 47.62442 | -52.75564 | 486 ft | 35 kts | 266° |
| 2026-04-25 17:14 | 47.62420 | -52.75997 | 487 ft | 43 kts | 266° |
| 2026-04-25 17:14 | 47.62399 | -52.76425 | 495 ft | 41 kts | 266° |
| 2026-04-25 17:14 | 47.62381 | -52.76834 | 493 ft | 39 kts | 266° |
| 2026-04-25 17:14 | 47.62340 | -52.77100 | 488 ft | 13 kts | 294° |
| 2026-04-25 17:15 | 47.62366 | -52.77090 | 490 ft | 4 kts | 74° |
| 2026-04-25 17:15 | 47.62370 | -52.77040 | 485 ft | 7 kts | 85° |
| 2026-04-25 17:15 | 47.62387 | -52.76710 | 495 ft | 69 kts | 85° |
| 2026-04-25 17:15 | 47.62441 | -52.75624 | 489 ft | 140 kts | 85° |
| 2026-04-25 17:16 | 47.62486 | -52.73994 | 814 ft | 163 kts | 79° |
| 2026-04-25 17:16 | 47.62529 | -52.72238 | 1459 ft | 174 kts | 79° |
| 2026-04-25 17:16 | 47.62540 | -52.70501 | 2434 ft | 168 kts | 86° |
| 2026-04-25 17:16 | 47.62283 | -52.68743 | 3031 ft | 187 kts | 95° |
| 2026-04-25 17:17 | 47.61913 | -52.66719 | 3339 ft | 219 kts | 97° |
| 2026-04-25 17:17 | 47.61481 | -52.64406 | 3613 ft | 249 kts | 98° |
| 2026-04-25 17:17 | 47.61009 | -52.61888 | 4456 ft | 256 kts | 98° |
| 2026-04-25 17:17 | 47.60532 | -52.59329 | 5414 ft | 260 kts | 98° |
| 2026-04-25 17:18 | 47.60052 | -52.56721 | 6307 ft | 265 kts | 98° |
| 2026-04-25 17:18 | 47.59573 | -52.54060 | 7166 ft | 270 kts | 98° |
| 2026-04-25 17:18 | 47.59089 | -52.51348 | 8046 ft | 275 kts | 98° |
| 2026-04-25 17:18 | 47.58600 | -52.48584 | 8920 ft | 280 kts | 98° |
| 2026-04-25 17:19 | 47.58103 | -52.45768 | 9769 ft | 284 kts | 99° |
| 2026-04-25 17:19 | 47.57607 | -52.42947 | 10579 ft | 292 kts | 99° |
| 2026-04-25 17:19 | 47.57071 | -52.39869 | 10924 ft | 320 kts | 99° |
| 2026-04-25 17:19 | 47.56500 | -52.36577 | 11168 ft | 349 kts | 100° |
| 2026-04-25 17:20 | 47.55868 | -52.32977 | 11740 ft | 368 kts | 100° |
| 2026-04-25 17:20 | 47.55210 | -52.29261 | 12678 ft | 377 kts | 101° |
| 2026-04-25 17:20 | 47.54536 | -52.25476 | 13671 ft | 382 kts | 99° |
| 2026-04-25 17:20 | 47.53858 | -52.21658 | 14635 ft | 386 kts | 99° |
| 2026-04-25 17:21 | 47.53170 | -52.17787 | 15568 ft | 391 kts | 99° |
| 2026-04-25 17:21 | 47.52475 | -52.13869 | 16466 ft | 396 kts | 99° |
| 2026-04-25 17:21 | 47.51769 | -52.09896 | 17350 ft | 402 kts | 99° |
| 2026-04-25 17:21 | 47.51053 | -52.05869 | 18120 ft | 405 kts | 98° |
| 2026-04-25 17:22 | 47.50632 | -52.01759 | 18727 ft | 404 kts | 86° |
| 2026-04-25 17:22 | 47.50706 | -51.99020 | 19206 ft | 402 kts | 78° |
| 2026-04-25 17:22 | 47.51527 | -51.93668 | 20276 ft | 395 kts | 65° |
| 2026-04-25 17:22 | 47.52521 | -51.89841 | 20960 ft | 400 kts | 64° |
| 2026-04-25 17:23 | 47.53538 | -51.86042 | 21697 ft | 404 kts | 63° |
| 2026-04-25 17:23 | 47.54573 | -51.82175 | 22604 ft | 404 kts | 63° |
| 2026-04-25 17:23 | 47.55608 | -51.78280 | 23291 ft | 408 kts | 63° |
| 2026-04-25 17:23 | 47.56648 | -51.74335 | 23850 ft | 414 kts | 63° |
| 2026-04-25 17:24 | 47.57694 | -51.70331 | 24414 ft | 419 kts | 64° |
| 2026-04-25 17:24 | 47.58744 | -51.66278 | 25003 ft | 423 kts | 64° |
| 2026-04-25 17:24 | 47.59797 | -51.62200 | 25671 ft | 426 kts | 63° |
| 2026-04-25 17:24 | 47.60856 | -51.58075 | 26225 ft | 431 kts | 63° |
| 2026-04-25 17:25 | 47.61938 | -51.53861 | 26279 ft | 445 kts | 64° |
| 2026-04-25 17:25 | 47.63056 | -51.49506 | 26293 ft | 457 kts | 64° |
| 2026-04-25 17:25 | 47.64190 | -51.45064 | 26302 ft | 463 kts | 64° |
| 2026-04-25 17:25 | 47.65327 | -51.40591 | 26277 ft | 463 kts | 64° |
| 2026-04-25 17:26 | 47.66459 | -51.36115 | 26270 ft | 463 kts | 64° |
| 2026-04-25 17:26 | 47.67589 | -51.31646 | 26270 ft | 462 kts | 64° |
| 2026-04-25 17:26 | 47.68718 | -51.27178 | 26271 ft | 462 kts | 64° |
| 2026-04-25 17:26 | 47.69849 | -51.22697 | 26271 ft | 462 kts | 64° |
| 2026-04-25 17:27 | 47.70976 | -51.18228 | 26264 ft | 462 kts | 64° |
| 2026-04-25 17:27 | 47.72102 | -51.13758 | 26266 ft | 462 kts | 64° |
| 2026-04-25 17:27 | 47.73214 | -51.09333 | 26255 ft | 462 kts | 64° |
| 2026-04-25 17:27 | 47.73594 | -51.07819 | 26257 ft | 462 kts | 64° |
| 2026-04-25 17:28 | 47.75461 | -51.00367 | 26261 ft | 463 kts | 65° |
| 2026-04-25 17:28 | 47.76546 | -50.96024 | 26258 ft | 463 kts | 65° |
| 2026-04-25 17:28 | 47.77664 | -50.91537 | 26253 ft | 463 kts | 65° |
| 2026-04-25 17:28 | 47.78780 | -50.87055 | 26254 ft | 463 kts | 65° |
| 2026-04-25 17:29 | 47.79894 | -50.82566 | 26253 ft | 462 kts | 65° |
| 2026-04-25 17:29 | 47.81008 | -50.78068 | 26252 ft | 462 kts | 65° |
| 2026-04-25 17:29 | 47.82120 | -50.73575 | 26283 ft | 462 kts | 65° |
| 2026-04-25 17:29 | 47.83230 | -50.69077 | 26249 ft | 463 kts | 65° |
| 2026-04-25 17:30 | 47.84339 | -50.64577 | 26244 ft | 463 kts | 65° |
| 2026-04-25 17:30 | 47.85448 | -50.60066 | 26255 ft | 463 kts | 66° |
| 2026-04-25 17:30 | 47.86552 | -50.55566 | 26246 ft | 463 kts | 66° |
| 2026-04-25 17:30 | 47.87654 | -50.51064 | 26242 ft | 463 kts | 66° |
| 2026-04-25 17:31 | 47.88741 | -50.46616 | 26245 ft | 463 kts | 66° |
| 2026-04-25 17:31 | 47.89840 | -50.42109 | 26243 ft | 463 kts | 66° |
| 2026-04-25 17:31 | 47.90939 | -50.37593 | 26233 ft | 463 kts | 66° |
| 2026-04-25 17:31 | 47.92035 | -50.33079 | 26232 ft | 463 kts | 66° |
| 2026-04-25 17:32 | 47.93130 | -50.28564 | 26234 ft | 463 kts | 66° |
| 2026-04-25 17:32 | 47.94221 | -50.24050 | 26236 ft | 463 kts | 66° |
| 2026-04-25 17:32 | 47.95315 | -50.19519 | 26247 ft | 463 kts | 66° |
| 2026-04-25 17:32 | 47.96405 | -50.14995 | 26226 ft | 463 kts | 66° |
| 2026-04-25 17:33 | 47.97492 | -50.10470 | 26244 ft | 463 kts | 66° |
| 2026-04-25 17:33 | 47.98580 | -50.05939 | 26230 ft | 463 kts | 67° |
| 2026-04-25 17:33 | 47.99665 | -50.01408 | 26241 ft | 465 kts | 67° |
| 2026-04-25 17:33 | 48.00718 | -49.97060 | 26462 ft | 469 kts | 66° |
| 2026-04-25 17:34 | 48.01860 | -49.92479 | 26942 ft | 470 kts | 66° |
| 2026-04-25 17:34 | 48.03017 | -49.87904 | 27488 ft | 470 kts | 66° |
| 2026-04-25 17:34 | 48.04174 | -49.83338 | 27995 ft | 471 kts | 66° |
| 2026-04-25 17:34 | 48.05338 | -49.78737 | 28204 ft | 476 kts | 68° |
| 2026-04-25 17:35 | 48.07703 | -49.69331 | 28250 ft | 492 kts | 68° |
| 2026-04-25 17:35 | 48.10122 | -49.59614 | 28238 ft | 501 kts | 68° |
| 2026-04-25 17:36 | 48.12541 | -49.49840 | 28238 ft | 500 kts | 68° |
| 2026-04-25 17:36 | 48.14945 | -49.40082 | 28240 ft | 499 kts | 68° |
| 2026-04-25 17:37 | 48.17331 | -49.30372 | 28244 ft | 500 kts | 69° |
| 2026-04-25 17:37 | 48.19727 | -49.20567 | 28250 ft | 502 kts | 69° |
| 2026-04-25 17:38 | 48.21330 | -49.13983 | 28255 ft | 502 kts | 69° |
| 2026-04-25 17:38 | 48.24513 | -49.00856 | 28258 ft | 503 kts | 69° |
| 2026-04-25 17:39 | 48.26860 | -48.91127 | 28258 ft | 503 kts | 69° |
| 2026-04-25 17:39 | 48.29221 | -48.81301 | 28272 ft | 504 kts | 70° |
| 2026-04-25 17:40 | 48.31597 | -48.71361 | 28270 ft | 507 kts | 70° |
| 2026-04-25 17:40 | 48.33978 | -48.61353 | 28269 ft | 508 kts | 70° |
| 2026-04-25 17:41 | 48.36351 | -48.51337 | 28275 ft | 507 kts | 71° |
| 2026-04-25 17:41 | 48.38695 | -48.41398 | 28276 ft | 507 kts | 71° |
| 2026-04-25 17:42 | 48.41043 | -48.31394 | 28283 ft | 506 kts | 71° |
| 2026-04-25 17:42 | 48.43381 | -48.21389 | 28295 ft | 506 kts | 71° |
| 2026-04-25 17:43 | 48.45710 | -48.11374 | 28293 ft | 506 kts | 71° |
| 2026-04-25 17:43 | 48.48031 | -48.01348 | 28308 ft | 506 kts | 71° |
| 2026-04-25 17:44 | 48.50289 | -47.91548 | 28304 ft | 506 kts | 72° |
| 2026-04-25 17:44 | 48.52594 | -47.81502 | 28313 ft | 511 kts | 73° |
| 2026-04-25 17:45 | 48.54156 | -47.74660 | 28322 ft | 519 kts | 73° |
| 2026-04-25 17:45 | 48.57269 | -47.60968 | 28317 ft | 515 kts | 73° |
| 2026-04-25 17:46 | 48.59569 | -47.50807 | 28324 ft | 509 kts | 72° |
| 2026-04-25 17:46 | 48.61843 | -47.40687 | 28336 ft | 508 kts | 72° |
| 2026-04-25 17:47 | 48.64111 | -47.30555 | 28346 ft | 509 kts | 73° |
| 2026-04-25 17:47 | 48.66375 | -47.20392 | 28339 ft | 511 kts | 73° |
| 2026-04-25 17:48 | 48.69755 | -47.05127 | 28360 ft | 512 kts | 75° |
| 2026-04-25 17:49 | 48.71976 | -46.95047 | 28358 ft | 513 kts | 75° |
| 2026-04-25 17:49 | 48.74225 | -46.84786 | 28358 ft | 513 kts | 73° |
| 2026-04-25 17:50 | 48.76472 | -46.74464 | 28371 ft | 520 kts | 73° |
| 2026-04-25 17:50 | 48.78742 | -46.63997 | 28376 ft | 522 kts | 74° |
| 2026-04-25 17:51 | 48.80988 | -46.53598 | 28379 ft | 521 kts | 75° |
| 2026-04-25 17:51 | 48.83234 | -46.43142 | 28386 ft | 521 kts | 75° |
| 2026-04-25 17:52 | 48.85469 | -46.32673 | 28401 ft | 521 kts | 75° |
| 2026-04-25 17:52 | 48.87696 | -46.22192 | 28402 ft | 521 kts | 75° |
| 2026-04-25 17:53 | 48.89899 | -46.11775 | 28408 ft | 521 kts | 75° |
| 2026-04-25 17:53 | 48.92107 | -46.01275 | 28409 ft | 521 kts | 75° |
| 2026-04-25 17:54 | 48.94274 | -45.90920 | 28415 ft | 521 kts | 75° |
| 2026-04-25 17:54 | 48.96101 | -45.82145 | 28420 ft | 522 kts | 75° |
| 2026-04-25 17:55 | 48.98282 | -45.71621 | 28429 ft | 522 kts | 75° |
| 2026-04-25 17:55 | 49.00457 | -45.61070 | 28434 ft | 522 kts | 76° |
| 2026-04-25 17:56 | 49.02621 | -45.50519 | 28422 ft | 522 kts | 76° |
| 2026-04-25 17:56 | 49.04777 | -45.39949 | 28445 ft | 522 kts | 76° |
| 2026-04-25 17:57 | 49.06909 | -45.29439 | 28445 ft | 522 kts | 76° |
| 2026-04-25 17:57 | 49.09046 | -45.18851 | 28456 ft | 522 kts | 76° |
| 2026-04-25 17:58 | 49.11173 | -45.08254 | 28447 ft | 522 kts | 76° |
| 2026-04-25 17:58 | 49.13257 | -44.97817 | 28462 ft | 522 kts | 77° |
| 2026-04-25 17:59 | 49.15365 | -44.87200 | 28473 ft | 522 kts | 77° |
| 2026-04-25 17:59 | 49.17464 | -44.76570 | 28455 ft | 522 kts | 77° |
| 2026-04-25 18:00 | 49.19557 | -44.65904 | 28479 ft | 524 kts | 77° |
| 2026-04-25 18:00 | 49.21634 | -44.55268 | 28492 ft | 526 kts | 78° |
| 2026-04-25 18:01 | 49.23723 | -44.44515 | 28491 ft | 527 kts | 78° |
| 2026-04-25 18:01 | 49.25800 | -44.33759 | 28489 ft | 527 kts | 78° |
| 2026-04-25 18:02 | 49.27871 | -44.22977 | 28491 ft | 527 kts | 78° |
| 2026-04-25 18:02 | 49.29929 | -44.12204 | 28493 ft | 526 kts | 78° |
| 2026-04-25 18:03 | 49.31976 | -44.01421 | 28500 ft | 526 kts | 78° |
| 2026-04-25 18:03 | 49.33978 | -43.90810 | 28504 ft | 526 kts | 78° |
| 2026-04-25 18:04 | 49.35990 | -43.80091 | 28510 ft | 526 kts | 78° |
| 2026-04-25 18:04 | 49.38005 | -43.69294 | 28475 ft | 527 kts | 79° |
| 2026-04-25 18:05 | 49.40016 | -43.58452 | 28520 ft | 529 kts | 79° |
| 2026-04-25 18:05 | 49.42025 | -43.47552 | 28525 ft | 531 kts | 79° |
| 2026-04-25 18:06 | 49.44032 | -43.36611 | 28527 ft | 532 kts | 79° |
| 2026-04-25 18:06 | 49.46033 | -43.25640 | 28502 ft | 532 kts | 80° |
| 2026-04-25 18:07 | 49.48022 | -43.14659 | 28522 ft | 533 kts | 80° |
| 2026-04-25 18:07 | 49.50001 | -43.03668 | 28534 ft | 533 kts | 80° |
| 2026-04-25 18:08 | 49.51929 | -42.92894 | 28535 ft | 533 kts | 80° |
| 2026-04-25 18:08 | 49.53888 | -42.81887 | 28503 ft | 533 kts | 81° |
| 2026-04-25 18:09 | 49.55837 | -42.70867 | 28531 ft | 533 kts | 81° |
| 2026-04-25 18:09 | 49.57776 | -42.59832 | 28526 ft | 535 kts | 82° |
| 2026-04-25 18:10 | 49.59715 | -42.48717 | 28547 ft | 538 kts | 82° |
| 2026-04-25 18:10 | 49.61641 | -42.37614 | 28509 ft | 539 kts | 82° |
| 2026-04-25 18:11 | 49.63574 | -42.26412 | 28554 ft | 541 kts | 82° |
| 2026-04-25 18:11 | 49.65502 | -42.15161 | 28552 ft | 542 kts | 82° |
| 2026-04-25 18:12 | 49.67419 | -42.03904 | 28549 ft | 542 kts | 83° |
| 2026-04-25 18:12 | 49.69282 | -41.92894 | 28552 ft | 541 kts | 83° |
| 2026-04-25 18:13 | 49.71176 | -41.81629 | 28555 ft | 541 kts | 83° |
| 2026-04-25 18:13 | 49.73057 | -41.70354 | 28564 ft | 542 kts | 83° |
| 2026-04-25 18:14 | 49.75864 | -41.53403 | 28515 ft | 543 kts | 84° |
| 2026-04-25 18:14 | 49.77725 | -41.42069 | 28526 ft | 544 kts | 84° |
| 2026-04-25 18:15 | 49.79580 | -41.30685 | 28567 ft | 546 kts | 84° |
| 2026-04-25 18:15 | 49.81419 | -41.19333 | 28577 ft | 548 kts | 84° |
| 2026-04-25 18:16 | 49.83264 | -41.07874 | 28581 ft | 548 kts | 84° |
| 2026-04-25 18:17 | 49.85979 | -40.90861 | 28566 ft | 547 kts | 84° |
| 2026-04-25 18:17 | 49.87794 | -40.79381 | 28584 ft | 548 kts | 84° |
| 2026-04-25 18:18 | 49.89601 | -40.67870 | 28593 ft | 549 kts | 84° |
| 2026-04-25 18:18 | 49.91396 | -40.56359 | 28581 ft | 549 kts | 84° |
| 2026-04-25 18:19 | 49.93171 | -40.44893 | 28524 ft | 549 kts | 84° |
| 2026-04-25 18:19 | 49.94945 | -40.33354 | 28588 ft | 549 kts | 84° |
| 2026-04-25 18:20 | 49.96708 | -40.21797 | 28592 ft | 550 kts | 84° |
| 2026-04-25 18:20 | 49.98464 | -40.10217 | 28604 ft | 550 kts | 84° |
| 2026-04-25 18:21 | 50.00286 | -39.98837 | 28611 ft | 555 kts | 80° |
| 2026-04-25 18:21 | 50.03002 | -39.87529 | 28612 ft | 560 kts | 75° |
| 2026-04-25 18:22 | 50.05896 | -39.76341 | 28609 ft | 560 kts | 75° |
| 2026-04-25 18:22 | 50.08771 | -39.65059 | 28603 ft | 560 kts | 75° |
| 2026-04-25 18:23 | 50.11585 | -39.53772 | 28606 ft | 557 kts | 75° |
| 2026-04-25 18:23 | 50.14364 | -39.42499 | 28620 ft | 557 kts | 75° |
| 2026-04-25 18:24 | 50.17131 | -39.31216 | 28617 ft | 556 kts | 75° |
| 2026-04-25 18:24 | 50.19889 | -39.19934 | 28563 ft | 556 kts | 75° |
| 2026-04-25 18:25 | 50.22615 | -39.08736 | 28626 ft | 555 kts | 75° |
| 2026-04-25 18:25 | 50.25298 | -38.97662 | 28620 ft | 553 kts | 75° |
| 2026-04-25 18:26 | 50.28013 | -38.86393 | 28632 ft | 552 kts | 75° |
| 2026-04-25 18:26 | 50.30705 | -38.75158 | 28599 ft | 551 kts | 75° |
| 2026-04-25 18:27 | 50.33364 | -38.64008 | 28631 ft | 550 kts | 75° |
| 2026-04-25 18:27 | 50.36029 | -38.52769 | 28644 ft | 549 kts | 75° |
| 2026-04-25 18:28 | 50.38680 | -38.41532 | 28646 ft | 550 kts | 75° |
| 2026-04-25 18:28 | 50.41319 | -38.30286 | 28630 ft | 549 kts | 75° |
| 2026-04-25 18:29 | 50.45262 | -38.13383 | 28647 ft | 550 kts | 75° |
| 2026-04-25 18:30 | 50.50420 | -37.91061 | 28631 ft | 549 kts | 75° |
| 2026-04-25 18:30 | 50.52999 | -37.79820 | 28657 ft | 544 kts | 75° |
| 2026-04-25 18:31 | 50.55544 | -37.68665 | 28667 ft | 541 kts | 75° |
| 2026-04-25 18:31 | 50.58068 | -37.57537 | 28676 ft | 539 kts | 75° |
| 2026-04-25 18:32 | 50.60578 | -37.46405 | 28639 ft | 539 kts | 75° |
| 2026-04-25 18:32 | 50.63075 | -37.35279 | 28682 ft | 538 kts | 76° |
| 2026-04-25 18:33 | 50.65560 | -37.24149 | 28683 ft | 538 kts | 76° |
| 2026-04-25 18:33 | 50.68021 | -37.13068 | 28687 ft | 538 kts | 76° |
| 2026-04-25 18:34 | 50.70488 | -37.01899 | 28651 ft | 540 kts | 76° |
| 2026-04-25 18:34 | 50.72916 | -36.90843 | 28701 ft | 544 kts | 76° |
| 2026-04-25 18:35 | 50.75390 | -36.79517 | 28716 ft | 547 kts | 76° |
| 2026-04-25 18:35 | 50.77866 | -36.68131 | 28719 ft | 548 kts | 76° |
| 2026-04-25 18:36 | 50.80333 | -36.56725 | 28697 ft | 547 kts | 76° |
| 2026-04-25 18:36 | 50.82785 | -36.45322 | 28727 ft | 547 kts | 76° |
| 2026-04-25 18:37 | 50.85202 | -36.34015 | 28719 ft | 546 kts | 76° |
| 2026-04-25 18:37 | 50.87623 | -36.22624 | 28735 ft | 545 kts | 76° |
| 2026-04-25 18:38 | 50.90029 | -36.11248 | 28733 ft | 543 kts | 76° |
| 2026-04-25 18:38 | 50.92411 | -35.99910 | 28749 ft | 544 kts | 77° |
| 2026-04-25 18:39 | 50.94764 | -35.88645 | 28749 ft | 545 kts | 77° |
| 2026-04-25 18:39 | 50.97126 | -35.77277 | 28752 ft | 546 kts | 77° |
| 2026-04-25 18:40 | 50.99493 | -35.65823 | 28751 ft | 547 kts | 77° |
| 2026-04-25 18:40 | 51.01454 | -35.56285 | 28759 ft | 547 kts | 77° |
| 2026-04-25 18:41 | 51.03805 | -35.44789 | 28764 ft | 547 kts | 77° |
| 2026-04-25 18:41 | 51.06145 | -35.33278 | 28760 ft | 547 kts | 77° |
| 2026-04-25 18:42 | 51.08084 | -35.23690 | 28762 ft | 546 kts | 77° |
| 2026-04-25 18:42 | 51.10790 | -35.10232 | 28777 ft | 546 kts | 77° |
| 2026-04-25 18:43 | 51.13038 | -34.98973 | 28773 ft | 546 kts | 77° |
| 2026-04-25 18:43 | 51.15328 | -34.87437 | 28785 ft | 546 kts | 77° |
| 2026-04-25 18:44 | 51.17608 | -34.75890 | 28777 ft | 546 kts | 77° |
| 2026-04-25 18:44 | 51.19875 | -34.64335 | 28790 ft | 546 kts | 77° |
| 2026-04-25 18:45 | 51.22132 | -34.52759 | 28809 ft | 546 kts | 77° |
| 2026-04-25 18:45 | 51.24374 | -34.41193 | 28794 ft | 546 kts | 77° |
| 2026-04-25 18:46 | 51.26604 | -34.29623 | 28804 ft | 545 kts | 77° |
| 2026-04-25 18:46 | 51.28807 | -34.18117 | 28818 ft | 545 kts | 77° |
| 2026-04-25 18:47 | 51.31012 | -34.06533 | 28816 ft | 545 kts | 78° |
| 2026-04-25 18:47 | 51.33174 | -33.95102 | 28827 ft | 545 kts | 78° |
| 2026-04-25 18:48 | 51.35358 | -33.83488 | 28833 ft | 544 kts | 77° |
| 2026-04-25 18:48 | 51.37516 | -33.71944 | 28836 ft | 544 kts | 77° |
| 2026-04-25 18:49 | 51.39674 | -33.60323 | 28841 ft | 543 kts | 78° |
| 2026-04-25 18:49 | 51.41804 | -33.48778 | 28844 ft | 543 kts | 78° |
| 2026-04-25 18:50 | 51.43946 | -33.37093 | 28845 ft | 543 kts | 77° |
| 2026-04-25 18:50 | 51.46052 | -33.25538 | 28864 ft | 543 kts | 77° |
| 2026-04-25 18:51 | 51.47820 | -33.15780 | 28859 ft | 543 kts | 78° |
| 2026-04-25 18:51 | 51.50257 | -33.02240 | 28863 ft | 544 kts | 77° |
| 2026-04-25 18:52 | 51.52316 | -32.90724 | 28879 ft | 546 kts | 77° |
| 2026-04-25 18:52 | 51.54406 | -32.78953 | 28880 ft | 548 kts | 77° |
| 2026-04-25 18:53 | 51.56491 | -32.67134 | 28884 ft | 549 kts | 77° |
| 2026-04-25 18:53 | 51.58565 | -32.55307 | 28889 ft | 549 kts | 77° |
| 2026-04-25 18:54 | 51.61641 | -32.37613 | 28893 ft | 550 kts | 77° |
| 2026-04-25 18:55 | 51.63687 | -32.25740 | 28898 ft | 550 kts | 77° |
| 2026-04-25 18:55 | 51.65722 | -32.13858 | 28907 ft | 550 kts | 77° |
| 2026-04-25 18:56 | 51.67742 | -32.01973 | 28900 ft | 550 kts | 77° |
| 2026-04-25 18:56 | 51.69721 | -31.90257 | 28911 ft | 550 kts | 77° |
| 2026-04-25 18:57 | 51.71723 | -31.78330 | 28918 ft | 551 kts | 77° |
| 2026-04-25 18:57 | 51.73710 | -31.66398 | 28921 ft | 551 kts | 77° |
| 2026-04-25 18:58 | 51.75689 | -31.54434 | 28919 ft | 553 kts | 77° |
| 2026-04-25 18:58 | 51.78642 | -31.36421 | 28944 ft | 557 kts | 77° |
| 2026-04-25 18:59 | 51.82572 | -31.12160 | 28939 ft | 558 kts | 77° |
| 2026-04-25 19:00 | 51.85458 | -30.94110 | 28951 ft | 557 kts | 77° |
| 2026-04-25 19:01 | 51.88340 | -30.75889 | 28948 ft | 556 kts | 77° |
| 2026-04-25 19:01 | 51.90231 | -30.63817 | 28942 ft | 557 kts | 77° |
| 2026-04-25 19:02 | 51.93070 | -30.45531 | 28963 ft | 558 kts | 77° |
| 2026-04-25 19:03 | 51.95253 | -30.31332 | 28963 ft | 558 kts | 77° |
| 2026-04-25 19:03 | 51.97743 | -30.14972 | 28961 ft | 558 kts | 77° |
| 2026-04-25 19:04 | 52.00664 | -29.97030 | 28976 ft | 557 kts | 71° |
| 2026-04-25 19:05 | 52.06555 | -29.73770 | 28969 ft | 557 kts | 67° |
| 2026-04-25 19:06 | 52.09497 | -29.62153 | 28970 ft | 555 kts | 68° |
| 2026-04-25 19:06 | 52.13824 | -29.44694 | 28980 ft | 554 kts | 68° |
| 2026-04-25 19:07 | 52.18113 | -29.27207 | 28984 ft | 553 kts | 68° |
| 2026-04-25 19:08 | 52.22352 | -29.09819 | 28980 ft | 551 kts | 68° |
| 2026-04-25 19:09 | 52.27459 | -28.88692 | 29003 ft | 551 kts | 68° |
| 2026-04-25 19:10 | 52.32114 | -28.69247 | 28988 ft | 550 kts | 68° |
| 2026-04-25 19:10 | 52.34889 | -28.57575 | 28986 ft | 550 kts | 68° |
| 2026-04-25 19:11 | 52.37635 | -28.45958 | 28996 ft | 550 kts | 68° |
| 2026-04-25 19:11 | 52.40386 | -28.34261 | 28992 ft | 550 kts | 68° |
| 2026-04-25 19:12 | 52.43121 | -28.22568 | 28998 ft | 549 kts | 68° |
| 2026-04-25 19:12 | 52.45843 | -28.10864 | 28994 ft | 549 kts | 68° |
| 2026-04-25 19:13 | 52.48513 | -27.99325 | 28994 ft | 549 kts | 68° |
| 2026-04-25 19:13 | 52.51195 | -27.87663 | 29002 ft | 549 kts | 68° |
| 2026-04-25 19:14 | 52.53884 | -27.75913 | 28997 ft | 550 kts | 68° |
| 2026-04-25 19:14 | 52.56563 | -27.64141 | 28997 ft | 550 kts | 68° |
| 2026-04-25 19:15 | 52.59233 | -27.52343 | 28999 ft | 550 kts | 69° |
| 2026-04-25 19:15 | 52.61889 | -27.40538 | 28997 ft | 550 kts | 68° |
| 2026-04-25 19:16 | 52.64538 | -27.28701 | 28997 ft | 551 kts | 68° |
| 2026-04-25 19:16 | 52.67176 | -27.16840 | 28998 ft | 551 kts | 69° |
| 2026-04-25 19:17 | 52.69801 | -27.04974 | 29007 ft | 552 kts | 68° |
| 2026-04-25 19:17 | 52.72364 | -26.93321 | 29000 ft | 553 kts | 68° |
| 2026-04-25 19:18 | 52.74975 | -26.81384 | 28994 ft | 553 kts | 68° |
| 2026-04-25 19:18 | 52.77578 | -26.69411 | 28999 ft | 553 kts | 69° |
| 2026-04-25 19:19 | 52.80169 | -26.57427 | 29001 ft | 554 kts | 69° |
| 2026-04-25 19:19 | 52.82745 | -26.45438 | 28998 ft | 553 kts | 69° |
| 2026-04-25 19:20 | 52.85313 | -26.33418 | 29002 ft | 553 kts | 69° |
| 2026-04-25 19:20 | 52.87853 | -26.21459 | 28998 ft | 553 kts | 69° |
| 2026-04-25 19:21 | 52.90394 | -26.09423 | 29011 ft | 554 kts | 69° |
| 2026-04-25 19:21 | 52.94151 | -25.91500 | 29003 ft | 555 kts | 69° |
| 2026-04-25 19:22 | 52.96674 | -25.79372 | 29003 ft | 555 kts | 69° |
| 2026-04-25 19:23 | 53.00426 | -25.61190 | 29005 ft | 556 kts | 69° |
| 2026-04-25 19:23 | 53.04151 | -25.42981 | 29003 ft | 557 kts | 69° |
| 2026-04-25 19:24 | 53.06631 | -25.30765 | 29002 ft | 557 kts | 69° |
| 2026-04-25 19:25 | 53.11551 | -25.06296 | 29002 ft | 558 kts | 69° |
| 2026-04-25 19:25 | 53.13943 | -24.94294 | 29003 ft | 558 kts | 70° |
| 2026-04-25 19:26 | 53.16377 | -24.81997 | 29002 ft | 558 kts | 70° |
| 2026-04-25 19:26 | 53.18799 | -24.69687 | 29019 ft | 559 kts | 70° |
| 2026-04-25 19:27 | 53.20402 | -24.61491 | 28988 ft | 559 kts | 70° |
| 2026-04-25 19:27 | 53.23207 | -24.47069 | 29012 ft | 558 kts | 70° |
| 2026-04-25 19:28 | 53.25977 | -24.32727 | 29011 ft | 558 kts | 70° |
| 2026-04-25 19:28 | 53.27963 | -24.22375 | 29017 ft | 558 kts | 70° |
| 2026-04-25 19:29 | 53.30325 | -24.09993 | 29011 ft | 559 kts | 70° |
| 2026-04-25 19:29 | 53.32626 | -23.97848 | 29010 ft | 559 kts | 70° |
| 2026-04-25 19:30 | 53.34965 | -23.85423 | 29013 ft | 559 kts | 70° |
| 2026-04-25 19:30 | 53.37293 | -23.72972 | 29021 ft | 560 kts | 70° |
| 2026-04-25 19:31 | 53.39595 | -23.60575 | 29010 ft | 560 kts | 70° |
| 2026-04-25 19:31 | 53.41902 | -23.48074 | 29013 ft | 560 kts | 71° |
| 2026-04-25 19:32 | 53.44194 | -23.35576 | 29016 ft | 560 kts | 71° |
| 2026-04-25 19:32 | 53.46091 | -23.25183 | 29028 ft | 560 kts | 71° |
| 2026-04-25 19:33 | 53.48727 | -23.10624 | 29006 ft | 560 kts | 71° |
| 2026-04-25 19:33 | 53.50935 | -22.98296 | 29014 ft | 559 kts | 71° |
| 2026-04-25 19:34 | 53.53163 | -22.85781 | 29012 ft | 559 kts | 71° |
| 2026-04-25 19:34 | 53.55386 | -22.73232 | 29014 ft | 559 kts | 72° |
| 2026-04-25 19:35 | 53.57593 | -22.60685 | 29011 ft | 559 kts | 72° |
| 2026-04-25 19:35 | 53.59771 | -22.48214 | 29014 ft | 559 kts | 72° |
| 2026-04-25 19:36 | 53.61952 | -22.35641 | 29013 ft | 559 kts | 72° |
| 2026-04-25 19:36 | 53.64120 | -22.23051 | 29017 ft | 559 kts | 73° |
| 2026-04-25 19:37 | 53.66271 | -22.10467 | 29014 ft | 558 kts | 73° |
| 2026-04-25 19:37 | 53.68380 | -21.98045 | 29017 ft | 558 kts | 73° |
| 2026-04-25 19:38 | 53.70505 | -21.85440 | 29018 ft | 558 kts | 73° |
| 2026-04-25 19:38 | 53.72602 | -21.72905 | 29022 ft | 558 kts | 73° |
| 2026-04-25 19:39 | 53.74702 | -21.60263 | 29019 ft | 558 kts | 73° |
| 2026-04-25 19:39 | 53.76788 | -21.47611 | 29019 ft | 559 kts | 73° |
| 2026-04-25 19:40 | 53.78863 | -21.34937 | 29025 ft | 559 kts | 74° |
| 2026-04-25 19:40 | 53.80924 | -21.22253 | 29020 ft | 558 kts | 74° |
| 2026-04-25 19:41 | 53.82955 | -21.09655 | 29028 ft | 558 kts | 74° |
| 2026-04-25 19:41 | 53.84615 | -20.99289 | 29027 ft | 558 kts | 74° |
| 2026-04-25 19:42 | 53.86974 | -20.84450 | 29026 ft | 558 kts | 75° |
| 2026-04-25 19:42 | 53.88977 | -20.71743 | 29031 ft | 558 kts | 75° |
| 2026-04-25 19:43 | 53.90956 | -20.59097 | 29026 ft | 557 kts | 75° |
| 2026-04-25 19:43 | 53.92929 | -20.46387 | 29036 ft | 557 kts | 76° |
| 2026-04-25 19:44 | 53.94890 | -20.33657 | 29031 ft | 557 kts | 76° |
| 2026-04-25 19:44 | 53.96838 | -20.20906 | 29043 ft | 557 kts | 76° |
| 2026-04-25 19:45 | 53.98759 | -20.08253 | 29047 ft | 557 kts | 76° |
| 2026-04-25 19:45 | 54.00159 | -19.95583 | 29046 ft | 554 kts | 86° |
| 2026-04-25 19:46 | 54.00451 | -19.82512 | 29055 ft | 552 kts | 91° |
| 2026-04-25 19:46 | 54.00614 | -19.69447 | 29060 ft | 552 kts | 91° |
| 2026-04-25 19:47 | 54.00807 | -19.56371 | 29050 ft | 552 kts | 91° |
| 2026-04-25 19:47 | 54.01021 | -19.43393 | 29059 ft | 552 kts | 91° |
| 2026-04-25 19:48 | 54.01231 | -19.30329 | 29057 ft | 552 kts | 91° |
| 2026-04-25 19:48 | 54.01424 | -19.17283 | 29062 ft | 551 kts | 91° |
| 2026-04-25 19:49 | 54.01541 | -19.08662 | 29070 ft | 550 kts | 92° |
| 2026-04-25 19:49 | 54.01754 | -18.91482 | 29047 ft | 549 kts | 91° |
| 2026-04-25 19:50 | 54.01966 | -18.72133 | 29066 ft | 547 kts | 92° |
| 2026-04-25 19:51 | 54.02091 | -18.59198 | 29079 ft | 546 kts | 92° |
| 2026-04-25 19:51 | 54.02201 | -18.46276 | 29080 ft | 546 kts | 92° |
| 2026-04-25 19:52 | 54.02297 | -18.33375 | 29081 ft | 545 kts | 92° |
| 2026-04-25 19:52 | 54.02379 | -18.20504 | 29078 ft | 546 kts | 92° |
| 2026-04-25 19:53 | 54.02449 | -18.07595 | 29080 ft | 543 kts | 92° |
| 2026-04-25 19:53 | 54.02503 | -17.94959 | 29086 ft | 542 kts | 92° |
| 2026-04-25 19:54 | 54.02544 | -17.82221 | 29092 ft | 541 kts | 92° |
| 2026-04-25 19:54 | 54.02571 | -17.69414 | 29096 ft | 541 kts | 92° |
| 2026-04-25 19:55 | 54.02585 | -17.56607 | 29088 ft | 540 kts | 92° |
| 2026-04-25 19:55 | 54.02586 | -17.43843 | 29101 ft | 539 kts | 92° |
| 2026-04-25 19:56 | 54.02573 | -17.31092 | 29104 ft | 539 kts | 93° |
| 2026-04-25 19:56 | 54.02546 | -17.18344 | 29090 ft | 538 kts | 93° |
| 2026-04-25 19:57 | 54.02506 | -17.05597 | 29097 ft | 538 kts | 93° |
| 2026-04-25 19:57 | 54.02454 | -16.93148 | 29106 ft | 537 kts | 93° |
| 2026-04-25 19:58 | 54.02388 | -16.80414 | 29110 ft | 537 kts | 93° |
| 2026-04-25 19:58 | 54.02307 | -16.67698 | 29110 ft | 538 kts | 94° |
| 2026-04-25 19:59 | 54.02215 | -16.55053 | 29110 ft | 538 kts | 94° |
| 2026-04-25 19:59 | 54.02108 | -16.42331 | 29127 ft | 538 kts | 94° |
| 2026-04-25 20:00 | 54.01988 | -16.29611 | 29134 ft | 538 kts | 94° |
| 2026-04-25 20:00 | 54.01854 | -16.16890 | 29126 ft | 538 kts | 94° |
| 2026-04-25 20:01 | 54.01631 | -15.97992 | 29109 ft | 538 kts | 94° |
| 2026-04-25 20:01 | 54.01466 | -15.85346 | 29119 ft | 537 kts | 94° |
| 2026-04-25 20:02 | 54.01285 | -15.72639 | 29149 ft | 537 kts | 94° |
| 2026-04-25 20:02 | 54.01091 | -15.59909 | 29133 ft | 538 kts | 95° |
| 2026-04-25 20:03 | 54.00884 | -15.47191 | 29137 ft | 538 kts | 95° |
| 2026-04-25 20:03 | 54.00666 | -15.34562 | 29137 ft | 537 kts | 95° |
| 2026-04-25 20:04 | 54.00433 | -15.21875 | 29145 ft | 536 kts | 95° |
| 2026-04-25 20:04 | 54.00187 | -15.09176 | 29152 ft | 536 kts | 95° |
| 2026-04-25 20:05 | 53.99946 | -14.96692 | 29152 ft | 537 kts | 94° |
| 2026-04-25 20:05 | 53.99959 | -14.83975 | 29143 ft | 537 kts | 92° |
| 2026-04-25 20:06 | 54.00061 | -14.71373 | 29157 ft | 536 kts | 92° |
| 2026-04-25 20:06 | 54.00107 | -14.58703 | 29157 ft | 535 kts | 93° |
| 2026-04-25 20:07 | 54.00107 | -14.46044 | 29157 ft | 535 kts | 93° |
| 2026-04-25 20:07 | 54.00091 | -14.33392 | 29140 ft | 535 kts | 93° |
| 2026-04-25 20:08 | 54.00067 | -14.20762 | 29162 ft | 534 kts | 93° |
| 2026-04-25 20:08 | 54.00032 | -14.08158 | 29166 ft | 533 kts | 93° |
| 2026-04-25 20:09 | 53.99966 | -13.95758 | 29168 ft | 532 kts | 94° |
| 2026-04-25 20:09 | 53.99731 | -13.83177 | 29167 ft | 532 kts | 95° |
| 2026-04-25 20:10 | 53.99433 | -13.70678 | 29169 ft | 531 kts | 95° |
| 2026-04-25 20:10 | 53.99139 | -13.58151 | 29175 ft | 531 kts | 95° |
| 2026-04-25 20:11 | 53.98851 | -13.45615 | 29169 ft | 530 kts | 95° |
| 2026-04-25 20:11 | 53.98556 | -13.33095 | 29183 ft | 530 kts | 95° |
| 2026-04-25 20:12 | 53.98246 | -13.20565 | 29174 ft | 530 kts | 95° |
| 2026-04-25 20:12 | 53.98034 | -13.12275 | 29181 ft | 530 kts | 95° |
| 2026-04-25 20:13 | 53.97593 | -12.95795 | 29186 ft | 531 kts | 95° |
| 2026-04-25 20:13 | 53.97243 | -12.83266 | 29181 ft | 531 kts | 96° |
| 2026-04-25 20:14 | 53.96879 | -12.70719 | 29175 ft | 531 kts | 96° |
| 2026-04-25 20:14 | 53.96503 | -12.58197 | 29182 ft | 531 kts | 96° |
| 2026-04-25 20:15 | 53.96115 | -12.45675 | 29195 ft | 531 kts | 96° |
| 2026-04-25 20:15 | 53.95715 | -12.33224 | 29193 ft | 531 kts | 96° |
| 2026-04-25 20:16 | 53.95299 | -12.20696 | 29193 ft | 531 kts | 96° |
| 2026-04-25 20:16 | 53.94870 | -12.08158 | 29183 ft | 531 kts | 96° |
| 2026-04-25 20:17 | 53.94437 | -11.95844 | 29196 ft | 531 kts | 96° |
| 2026-04-25 20:17 | 53.93982 | -11.83317 | 29195 ft | 531 kts | 96° |
| 2026-04-25 20:18 | 53.93595 | -11.72913 | 29199 ft | 531 kts | 96° |
| 2026-04-25 20:18 | 53.93116 | -11.60377 | 29181 ft | 532 kts | 96° |
| 2026-04-25 20:19 | 53.92622 | -11.47816 | 29201 ft | 533 kts | 96° |
| 2026-04-25 20:19 | 53.92119 | -11.35340 | 29203 ft | 534 kts | 97° |
| 2026-04-25 20:20 | 53.91599 | -11.22754 | 29199 ft | 535 kts | 97° |
| 2026-04-25 20:20 | 53.91065 | -11.10154 | 29199 ft | 535 kts | 97° |
| 2026-04-25 20:21 | 53.90527 | -10.97779 | 29199 ft | 535 kts | 97° |
| 2026-04-25 20:21 | 53.89967 | -10.85193 | 29202 ft | 534 kts | 97° |
| 2026-04-25 20:22 | 53.89492 | -10.74753 | 29202 ft | 534 kts | 97° |
| 2026-04-25 20:22 | 53.88809 | -10.60075 | 29208 ft | 534 kts | 97° |
| 2026-04-25 20:23 | 53.88211 | -10.47523 | 29199 ft | 534 kts | 97° |
| 2026-04-25 20:23 | 53.87604 | -10.35082 | 29211 ft | 534 kts | 97° |
| 2026-04-25 20:24 | 53.86980 | -10.22540 | 29210 ft | 534 kts | 97° |
| 2026-04-25 20:24 | 53.86343 | -10.10007 | 29210 ft | 534 kts | 97° |
| 2026-04-25 20:25 | 53.85704 | -9.97689 | 29192 ft | 534 kts | 98° |
| 2026-04-25 20:25 | 53.85040 | -9.85160 | 29204 ft | 534 kts | 98° |
| 2026-04-25 20:26 | 53.84363 | -9.72627 | 29203 ft | 535 kts | 98° |
| 2026-04-25 20:26 | 53.83673 | -9.60084 | 29204 ft | 535 kts | 98° |
| 2026-04-25 20:27 | 53.82967 | -9.47517 | 29206 ft | 536 kts | 98° |
| 2026-04-25 20:27 | 53.82254 | -9.35039 | 29197 ft | 536 kts | 98° |
| 2026-04-25 20:28 | 53.81524 | -9.22490 | 29204 ft | 536 kts | 98° |
| 2026-04-25 20:28 | 53.80780 | -9.09943 | 29203 ft | 535 kts | 98° |
| 2026-04-25 20:29 | 53.80035 | -8.97616 | 29200 ft | 535 kts | 98° |
| 2026-04-25 20:29 | 53.79266 | -8.85089 | 29184 ft | 535 kts | 98° |
| 2026-04-25 20:30 | 53.78483 | -8.72562 | 29200 ft | 535 kts | 98° |
| 2026-04-25 20:30 | 53.77693 | -8.60125 | 29195 ft | 535 kts | 99° |
| 2026-04-25 20:31 | 53.76885 | -8.47620 | 29198 ft | 535 kts | 99° |
| 2026-04-25 20:31 | 53.76064 | -8.35116 | 29178 ft | 535 kts | 99° |
| 2026-04-25 20:32 | 53.75230 | -8.22619 | 29189 ft | 535 kts | 99° |
| 2026-04-25 20:32 | 53.74383 | -8.10127 | 29190 ft | 535 kts | 99° |
| 2026-04-25 20:33 | 53.73544 | -7.97929 | 29185 ft | 535 kts | 99° |
| 2026-04-25 20:33 | 53.72817 | -7.87534 | 29177 ft | 535 kts | 99° |
| 2026-04-25 20:34 | 53.71781 | -7.72923 | 29175 ft | 537 kts | 99° |
| 2026-04-25 20:34 | 53.70878 | -7.60395 | 29185 ft | 538 kts | 99° |
| 2026-04-25 20:35 | 53.69962 | -7.47861 | 29180 ft | 539 kts | 99° |
| 2026-04-25 20:35 | 53.69030 | -7.35308 | 29177 ft | 539 kts | 99° |
| 2026-04-25 20:36 | 53.68092 | -7.22846 | 29167 ft | 539 kts | 99° |
| 2026-04-25 20:36 | 53.67131 | -7.10267 | 29182 ft | 540 kts | 99° |
| 2026-04-25 20:37 | 53.66176 | -6.97918 | 29182 ft | 540 kts | 100° |
| 2026-04-25 20:37 | 53.65191 | -6.85368 | 29158 ft | 536 kts | 100° |
| 2026-04-25 20:38 | 53.64711 | -6.79294 | 29054 ft | 523 kts | 100° |
| 2026-04-25 20:38 | 53.64229 | -6.73223 | 28953 ft | 510 kts | 100° |
| 2026-04-25 20:38 | 53.63759 | -6.67358 | 28828 ft | 500 kts | 100° |
| 2026-04-25 20:38 | 53.63294 | -6.61615 | 28047 ft | 507 kts | 100° |
| 2026-04-25 20:39 | 53.62803 | -6.55633 | 27479 ft | 518 kts | 100° |
| 2026-04-25 20:39 | 53.62306 | -6.49607 | 27277 ft | 521 kts | 100° |
| 2026-04-25 20:39 | 53.61807 | -6.43562 | 27198 ft | 520 kts | 100° |
| 2026-04-25 20:39 | 53.61477 | -6.39568 | 27198 ft | 518 kts | 100° |
| 2026-04-25 20:40 | 53.60809 | -6.31535 | 27190 ft | 518 kts | 100° |
| 2026-04-25 20:40 | 53.60306 | -6.25530 | 27193 ft | 518 kts | 100° |
| 2026-04-25 20:40 | 53.59798 | -6.19518 | 27193 ft | 519 kts | 100° |
| 2026-04-25 20:40 | 53.59286 | -6.13494 | 27198 ft | 519 kts | 100° |
| 2026-04-25 20:41 | 53.58771 | -6.07474 | 27198 ft | 520 kts | 100° |
| 2026-04-25 20:41 | 53.58253 | -6.01455 | 27194 ft | 521 kts | 100° |
| 2026-04-25 20:41 | 53.57755 | -5.95693 | 27198 ft | 521 kts | 100° |
| 2026-04-25 20:41 | 53.57229 | -5.89657 | 27205 ft | 521 kts | 100° |
| 2026-04-25 20:42 | 53.56701 | -5.83628 | 27206 ft | 521 kts | 100° |
| 2026-04-25 20:42 | 53.56169 | -5.77587 | 27213 ft | 522 kts | 100° |
| 2026-04-25 20:42 | 53.55634 | -5.71552 | 27211 ft | 522 kts | 100° |
| 2026-04-25 20:42 | 53.55097 | -5.65517 | 27209 ft | 522 kts | 100° |
| 2026-04-25 20:43 | 53.54557 | -5.59485 | 27210 ft | 521 kts | 100° |
| 2026-04-25 20:43 | 53.54014 | -5.53454 | 27217 ft | 521 kts | 100° |
| 2026-04-25 20:43 | 53.53576 | -5.47403 | 27221 ft | 522 kts | 96° |
| 2026-04-25 20:43 | 53.53416 | -5.41302 | 27226 ft | 522 kts | 93° |
| 2026-04-25 20:44 | 53.53316 | -5.35204 | 27225 ft | 522 kts | 93° |
| 2026-04-25 20:44 | 53.53211 | -5.29104 | 27220 ft | 522 kts | 93° |
| 2026-04-25 20:44 | 53.53081 | -5.23001 | 27214 ft | 522 kts | 94° |
| 2026-04-25 20:44 | 53.52932 | -5.16910 | 27213 ft | 522 kts | 94° |
| 2026-04-25 20:45 | 53.52761 | -5.10808 | 27219 ft | 522 kts | 94° |
| 2026-04-25 20:45 | 53.52563 | -5.04791 | 27222 ft | 522 kts | 94° |
| 2026-04-25 20:45 | 53.52357 | -4.98819 | 27222 ft | 522 kts | 94° |
| 2026-04-25 20:45 | 53.52152 | -4.92801 | 27216 ft | 522 kts | 94° |
| 2026-04-25 20:46 | 53.51946 | -4.86707 | 27220 ft | 521 kts | 94° |
| 2026-04-25 20:46 | 53.51741 | -4.80628 | 27213 ft | 521 kts | 94° |
| 2026-04-25 20:46 | 53.51534 | -4.74543 | 27214 ft | 521 kts | 94° |
| 2026-04-25 20:46 | 53.51325 | -4.68466 | 27215 ft | 521 kts | 94° |
| 2026-04-25 20:47 | 53.51113 | -4.62387 | 27210 ft | 520 kts | 94° |
| 2026-04-25 20:47 | 53.50898 | -4.56316 | 27213 ft | 520 kts | 94° |
| 2026-04-25 20:47 | 53.50680 | -4.50246 | 27221 ft | 520 kts | 94° |
| 2026-04-25 20:47 | 53.50460 | -4.44189 | 27220 ft | 520 kts | 94° |
| 2026-04-25 20:48 | 53.50236 | -4.38125 | 27220 ft | 520 kts | 94° |
| 2026-04-25 20:48 | 53.50014 | -4.32172 | 27069 ft | 510 kts | 94° |
| 2026-04-25 20:48 | 53.49797 | -4.26385 | 27090 ft | 485 kts | 94° |
| 2026-04-25 20:48 | 53.49584 | -4.20802 | 26549 ft | 474 kts | 95° |
| 2026-04-25 20:49 | 53.49367 | -4.15268 | 25584 ft | 474 kts | 95° |
| 2026-04-25 20:49 | 53.49148 | -4.09744 | 24765 ft | 472 kts | 94° |
| 2026-04-25 20:49 | 53.48931 | -4.04284 | 24191 ft | 463 kts | 94° |
| 2026-04-25 20:49 | 53.48656 | -3.99122 | 23685 ft | 453 kts | 98° |
| 2026-04-25 20:50 | 53.48105 | -3.94044 | 22681 ft | 435 kts | 104° |
| 2026-04-25 20:50 | 53.47262 | -3.89209 | 21441 ft | 429 kts | 110° |
| 2026-04-25 20:50 | 53.46247 | -3.84474 | 20651 ft | 432 kts | 111° |
| 2026-04-25 20:50 | 53.45235 | -3.79713 | 20438 ft | 435 kts | 110° |
| 2026-04-25 20:51 | 53.44244 | -3.74984 | 20244 ft | 434 kts | 110° |
| 2026-04-25 20:51 | 53.43257 | -3.70226 | 20226 ft | 431 kts | 110° |
| 2026-04-25 20:51 | 53.42270 | -3.65466 | 20225 ft | 432 kts | 110° |
| 2026-04-25 20:51 | 53.41312 | -3.60689 | 20118 ft | 431 kts | 107° |
| 2026-04-25 20:52 | 53.40817 | -3.55776 | 19506 ft | 428 kts | 95° |
| 2026-04-25 20:52 | 53.40700 | -3.52406 | 19040 ft | 427 kts | 92° |
| 2026-04-25 20:52 | 53.40540 | -3.45846 | 18102 ft | 424 kts | 92° |
| 2026-04-25 20:52 | 53.40397 | -3.40929 | 17468 ft | 419 kts | 93° |
| 2026-04-25 20:53 | 53.40219 | -3.36097 | 16895 ft | 412 kts | 94° |
| 2026-04-25 20:53 | 53.40016 | -3.31342 | 16319 ft | 406 kts | 95° |
| 2026-04-25 20:53 | 53.39803 | -3.26636 | 15724 ft | 402 kts | 95° |
| 2026-04-25 20:53 | 53.39590 | -3.21995 | 15205 ft | 396 kts | 95° |
| 2026-04-25 20:54 | 53.39384 | -3.17508 | 15110 ft | 376 kts | 94° |
| 2026-04-25 20:54 | 53.39529 | -3.13340 | 14877 ft | 342 kts | 76° |
| 2026-04-25 20:54 | 53.40378 | -3.09801 | 14509 ft | 315 kts | 61° |
| 2026-04-25 20:54 | 53.41444 | -3.06707 | 13942 ft | 300 kts | 59° |
| 2026-04-25 20:55 | 53.42496 | -3.03746 | 13148 ft | 292 kts | 59° |
| 2026-04-25 20:55 | 53.43517 | -3.00873 | 12314 ft | 289 kts | 59° |
| 2026-04-25 20:55 | 53.44495 | -2.98101 | 11477 ft | 286 kts | 59° |
| 2026-04-25 20:55 | 53.45498 | -2.95239 | 10653 ft | 283 kts | 60° |
| 2026-04-25 20:56 | 53.46477 | -2.92424 | 9983 ft | 274 kts | 60° |
| 2026-04-25 20:56 | 53.47419 | -2.89707 | 9328 ft | 264 kts | 60° |
| 2026-04-25 20:56 | 53.48326 | -2.87086 | 8714 ft | 255 kts | 60° |
| 2026-04-25 20:56 | 53.49207 | -2.84535 | 8069 ft | 249 kts | 60° |
| 2026-04-25 20:57 | 53.50075 | -2.82016 | 7546 ft | 252 kts | 60° |
| 2026-04-25 20:57 | 53.50974 | -2.79403 | 7415 ft | 259 kts | 60° |
| 2026-04-25 20:57 | 53.51871 | -2.76791 | 7253 ft | 256 kts | 60° |
| 2026-04-25 20:57 | 53.52739 | -2.74264 | 7204 ft | 244 kts | 60° |
| 2026-04-25 20:58 | 53.53566 | -2.71851 | 7211 ft | 242 kts | 60° |
| 2026-04-25 20:58 | 53.54417 | -2.69365 | 7222 ft | 248 kts | 60° |
| 2026-04-25 20:58 | 53.55228 | -2.66790 | 7185 ft | 249 kts | 73° |
| 2026-04-25 20:58 | 53.55355 | -2.63931 | 7006 ft | 246 kts | 103° |
| 2026-04-25 20:59 | 53.54615 | -2.61381 | 6739 ft | 242 kts | 134° |
| 2026-04-25 20:59 | 53.53235 | -2.59878 | 6472 ft | 237 kts | 165° |
| 2026-04-25 20:59 | 53.51630 | -2.59505 | 6315 ft | 230 kts | 178° |
| 2026-04-25 20:59 | 53.50021 | -2.59423 | 6261 ft | 233 kts | 180° |
| 2026-04-25 21:00 | 53.48390 | -2.59409 | 6240 ft | 236 kts | 180° |
| 2026-04-25 21:00 | 53.47856 | -2.59406 | 6237 ft | 237 kts | 180° |
| 2026-04-25 21:00 | 53.43392 | -2.59415 | 5685 ft | 236 kts | 181° |
| 2026-04-25 21:01 | 53.41793 | -2.59428 | 5439 ft | 230 kts | 181° |
| 2026-04-25 21:01 | 53.40167 | -2.59447 | 5224 ft | 231 kts | 181° |
| 2026-04-25 21:01 | 53.38575 | -2.59472 | 5076 ft | 230 kts | 181° |
| 2026-04-25 21:01 | 53.36984 | -2.59488 | 5010 ft | 227 kts | 180° |
| 2026-04-25 21:02 | 53.35398 | -2.59475 | 4983 ft | 228 kts | 180° |
| 2026-04-25 21:02 | 53.33800 | -2.59456 | 4999 ft | 232 kts | 180° |
| 2026-04-25 21:02 | 53.32176 | -2.59438 | 4933 ft | 234 kts | 180° |
| 2026-04-25 21:02 | 53.30531 | -2.59420 | 4721 ft | 237 kts | 180° |
| 2026-04-25 21:03 | 53.28886 | -2.59405 | 4457 ft | 234 kts | 180° |
| 2026-04-25 21:03 | 53.27322 | -2.59393 | 4134 ft | 215 kts | 180° |
| 2026-04-25 21:03 | 53.25867 | -2.59379 | 3859 ft | 205 kts | 176° |
| 2026-04-25 21:03 | 53.24561 | -2.58654 | 3555 ft | 197 kts | 144° |
| 2026-04-25 21:04 | 53.23522 | -2.57201 | 3368 ft | 195 kts | 139° |
| 2026-04-25 21:04 | 53.22727 | -2.55480 | 3064 ft | 189 kts | 108° |
| 2026-04-25 21:04 | 53.22789 | -2.53330 | 3027 ft | 194 kts | 67° |
| 2026-04-25 21:04 | 53.23487 | -2.51375 | 2971 ft | 195 kts | 58° |
| 2026-04-25 21:05 | 53.24256 | -2.49538 | 2972 ft | 192 kts | 54° |
| 2026-04-25 21:05 | 53.25099 | -2.47751 | 2765 ft | 199 kts | 54° |
| 2026-04-25 21:05 | 53.25675 | -2.46570 | 2570 ft | 188 kts | 54° |
| 2026-04-25 21:05 | 53.26674 | -2.44422 | 2246 ft | 171 kts | 54° |
| 2026-04-25 21:06 | 53.27185 | -2.43410 | 2119 ft | 172 kts | 53° |
| 2026-04-25 21:06 | 53.27954 | -2.41882 | 1844 ft | 169 kts | 54° |
| 2026-04-25 21:06 | 53.28658 | -2.40434 | 1623 ft | 149 kts | 55° |
| 2026-04-25 21:06 | 53.29077 | -2.39565 | 1483 ft | 141 kts | 55° |
| 2026-04-25 21:07 | 53.29861 | -2.37942 | 1218 ft | 131 kts | 56° |
| 2026-04-25 21:07 | 53.30436 | -2.36762 | 994 ft | 130 kts | 52° |
| 2026-04-25 21:07 | 53.31002 | -2.35606 | 842 ft | 130 kts | 54° |
| 2026-04-25 21:07 | 53.31569 | -2.34400 | 691 ft | 132 kts | 50° |
| 2026-04-25 21:08 | 53.32146 | -2.33224 | 542 ft | 131 kts | 53° |
| 2026-04-25 21:08 | 53.32716 | -2.32052 | 387 ft | 129 kts | 51° |
| 2026-04-25 21:08 | 53.33282 | -2.30888 | 245 ft | 128 kts | 51° |
| 2026-04-25 21:08 | 53.33793 | -2.29834 | 242 ft | 102 kts | 51° |
| 2026-04-25 21:09 | 53.34336 | -2.28722 | 255 ft | 39 kts | 47° |
| 2026-04-25 21:09 | 53.34538 | -2.28521 | 262 ft | 30 kts | 22° |
| 2026-04-25 21:09 | 53.34709 | -2.28392 | 265 ft | 22 kts | 39° |
| 2026-04-25 21:10 | 53.34776 | -2.28268 | 265 ft | 5 kts | 51° |
| 2026-04-25 21:10 | 53.34800 | -2.28218 | 265 ft | 6 kts | 51° |
| 2026-04-25 21:10 | 53.34832 | -2.28152 | 265 ft | 8 kts | 51° |
| 2026-04-25 21:10 | 53.34871 | -2.28072 | 264 ft | 10 kts | 50° |
| 2026-04-25 21:11 | 53.34909 | -2.27994 | 264 ft | 7 kts | 51° |
| 2026-04-25 21:11 | 53.34944 | -2.27923 | 264 ft | 9 kts | 51° |
| 2026-04-25 21:11 | 53.35023 | -2.27759 | 264 ft | 32 kts | 51° |
| 2026-04-25 21:11 | 53.35161 | -2.27474 | 263 ft | 28 kts | 51° |
| 2026-04-25 21:12 | 53.35270 | -2.27248 | 258 ft | 19 kts | 48° |
| 2026-04-25 21:12 | 53.35360 | -2.27062 | 252 ft | 22 kts | 51° |
| 2026-04-25 21:12 | 53.35460 | -2.26900 | 246 ft | 8 kts | 8° |
| 2026-04-25 21:12 | 53.35485 | -2.26911 | 245 ft | 0 kts | 334° |
| 2026-04-25 21:13 | 53.35486 | -2.26911 | 245 ft | 0 kts | 334° |
| 2026-04-25 21:13 | 53.35490 | -2.26915 | 245 ft | 6 kts | 333° |
| 2026-04-25 21:13 | 53.35619 | -2.27080 | 244 ft | 30 kts | 321° |
| 2026-04-25 21:13 | 53.35712 | -2.27204 | 245 ft | 3 kts | 322° |
| 2026-04-25 21:14 | 53.35731 | -2.27229 | 245 ft | 4 kts | 321° |
| 2026-04-25 21:14 | 53.35747 | -2.27250 | 246 ft | 1 kts | 321° |
| 2026-04-25 21:14 | 53.35753 | -2.27258 | 246 ft | 1 kts | 321° |
| 2026-04-25 21:14 | 53.35760 | -2.27273 | 246 ft | 2 kts | 306° |
| 2026-04-25 21:15 | 53.35765 | -2.27292 | 246 ft | 2 kts | 291° |
| 2026-04-25 21:15 | 53.35767 | -2.27313 | 247 ft | 2 kts | 277° |
| 2026-04-25 21:15 | 53.35742 | -2.27416 | 248 ft | 15 kts | 234° |
| 2026-04-25 21:15 | 53.35676 | -2.27556 | 251 ft | 23 kts | 231° |
| 2026-04-25 21:16 | 53.35553 | -2.27767 | 254 ft | 23 kts | 223° |
| 2026-04-25 21:16 | 53.35526 | -2.27898 | 255 ft | 8 kts | 334° |
| 2026-04-25 21:16 | 53.35600 | -2.27900 | 255 ft | 16 kts | 6° |
| 2026-04-25 21:16 | 53.35712 | -2.27877 | 255 ft | 17 kts | 7° |
| 2026-04-25 21:17 | 53.35831 | -2.27862 | 255 ft | 17 kts | 3° |
| 2026-04-25 21:17 | 53.35922 | -2.27848 | 254 ft | 11 kts | 6° |
| 2026-04-25 21:17 | 53.35998 | -2.27832 | 254 ft | 12 kts | 3° |
| 2026-04-25 21:17 | 53.36033 | -2.27836 | 253 ft | 0 kts | 353° |
| 2026-04-25 21:18 | 53.36042 | -2.27839 | 253 ft | 2 kts | 349° |
| 2026-04-25 21:18 | 53.36068 | -2.27862 | 254 ft | 14 kts | 326° |
| 2026-04-25 21:18 | 53.36199 | -2.28067 | 255 ft | 26 kts | 315° |
| 2026-04-25 21:18 | 53.36322 | -2.28280 | 256 ft | 25 kts | 314° |
| 2026-04-25 21:19 | 53.36437 | -2.28477 | 257 ft | 21 kts | 317° |
| 2026-04-25 21:19 | 53.36543 | -2.28649 | 257 ft | 21 kts | 310° |
| 2026-04-25 21:19 | 53.36634 | -2.28745 | 258 ft | 15 kts | 20° |
| 2026-04-25 21:19 | 53.36719 | -2.28624 | 256 ft | 17 kts | 44° |
| 2026-04-25 21:20 | 53.36812 | -2.28548 | 255 ft | 15 kts | 335° |
| 2026-04-25 21:20 | 53.36852 | -2.28605 | 255 ft | 3 kts | 316° |
| 2026-04-25 21:20 | 53.36853 | -2.28608 | 255 ft | 0 kts | 315° |